Airfield :
LOGIN :

Register | Disclaimer

   EN    FR    IT 

 










Legend :    VFR   Marginal VFR   IFR   Intensive IFR   Very Intensive IFR
Visi :
Ceiling :
>= 8 km
>= 3000ft
5 to 8 km
1000 to 3000 ft
1500m to 5 km
500 to 1000 ft
800 to 1500m
200 to 500 ft
< 800m
< 200 ft
Symbols :   Thunderstorms  Fog  Heavy snow  Heavy precipitations  Wind > 20 kt
SIGMETs :     Misc.  Thunderstorms  Icing  Turbulence  Mountain Waves  Volcanic Ashes







- Airport Elevation : 120 ft
- IATA code : MME
- Download approach charts


EGNV - Durham Tees valley

CURRENT METAR :
  • 251320Z 11012KT 9999 FEW018 SCT026 13/09 Q0997

EXPIRED METARs :
  • 251250Z 10010KT 9999 VCSH FEW020 SCT048 12/09 Q0997
  • 251220Z 12009KT 9999 VCSH FEW018 SCT032 12/09 Q0997
  • 251150Z 13012KT 9999 VCSH FEW027 BKN033 11/08 Q0997
  • 251120Z 14011KT 9999 -RA FEW027 BKN034 12/08 Q0998
  • 251050Z 10011KT 9999 BKN030 12/07 Q0997

TAF TAF EGNV
Valid from the 25 at 12:00 until the 25 at 21:00 UTC


251058Z 2512/2521 12010KT 9999 SCT030
TEMPO 2512/2513 7000 RA BKN008
TEMPO 2513/2520 6000 SHRA
PROB30
TEMPO 2513/2519 16015G25KT 4000 +SHRA TSGR BKN014 BKN025CB
BECMG 2516/2519 18006KT
ATIS : +44 9012 018 111
No reported NOTAMs for that airfield.



MET'MAP, your aeronautical weather chart ! - Copyright ORBIFLY December 2007 - Disclaimer

ORBIFLY MET'MAP TEAM :

Programming & Development : Alexandra Zaïnal
Concept & Development : Baudouin d'Aumeries
Co-Development & Prog : Marc-Olivier Méhu
Technical & hardware support : Manuel Goepfert

Contact : metmap@orbifly.com




SOURCES & CREDITS :

   NOAA